Time;durP1;ratioP1;P1;durP2;ratioP2;P2;SDS_P1;SDS_P2;PMS_P1;PMS_P2;Temp;Humidity;BMP_temperature;BMP_pressure;BME280_temperature;BME280_humidity;BME280_pressure;Samples;Min_cycle;Max_cycle;Signal;HPM_P1;HPM_P2
2024/01/30 00:01:40;;;;;;;11.73;10.30;;;;;;;7.65;65.61;101517.13;10363176;28;20049;-62
2024/01/30 00:06:41;;;;;;;12.45;11.15;;;;;;;7.72;65.89;101521.22;10383486;28;20690;-62
2024/01/30 00:11:43;;;;;;;12.88;10.07;;;;;;;7.57;65.51;101511.34;10379387;28;20395;-63
2024/01/30 00:16:45;;;;;;;10.93;9.82;;;;;;;7.25;66.02;101466.03;10384109;28;20625;-63
2024/01/30 00:21:46;;;;;;;13.55;10.18;;;;;;;7.42;66.87;101511.13;10381285;28;20057;-64
2024/01/30 00:26:48;;;;;;;11.48;10.27;;;;;;;7.31;66.64;101500.19;10369274;28;20048;-63
2024/01/30 00:31:49;;;;;;;13.35;11.15;;;;;;;7.44;66.64;101517.22;10379070;28;20136;-64
2024/01/30 00:36:51;;;;;;;13.27;11.48;;;;;;;7.32;66.27;101509.84;10378677;28;20053;-62
2024/01/30 00:41:52;;;;;;;12.27;11.02;;;;;;;7.37;66.44;101510.50;10382579;28;20049;-63
2024/01/30 00:46:54;;;;;;;13.65;11.32;;;;;;;7.37;65.95;101513.16;10378582;28;20611;-63
2024/01/30 00:51:55;;;;;;;11.68;10.45;;;;;;;7.31;65.91;101509.91;10377862;28;20045;-63
2024/01/30 00:56:56;;;;;;;13.95;10.50;;;;;;;7.29;66.12;101517.94;10378709;28;20618;-63
2024/01/30 01:01:58;;;;;;;10.57;9.35;;;;;;;7.20;66.96;101513.06;10362551;28;20121;-64
2024/01/30 01:07:00;;;;;;;10.60;9.50;;;;;;;7.20;66.77;101521.88;10364665;28;20045;-62
2024/01/30 01:12:03;;;;;;;11.48;9.45;;;;;;;7.15;66.65;101523.03;10387909;28;20057;-64
2024/01/30 01:17:04;;;;;;;13.50;9.48;;;;;;;7.11;66.16;101524.09;10371963;28;20053;-63
2024/01/30 01:22:05;;;;;;;14.15;10.35;;;;;;;7.03;66.38;101517.34;10386892;28;20132;-64
2024/01/30 01:27:07;;;;;;;11.50;10.25;;;;;;;6.94;66.86;101519.56;10390406;28;20056;-66
2024/01/30 01:32:09;;;;;;;17.95;10.88;;;;;;;6.79;66.86;101505.25;10380270;28;20135;-64
2024/01/30 01:37:10;;;;;;;11.68;10.48;;;;;;;6.64;67.34;101499.69;10374318;28;20734;-63
2024/01/30 01:42:12;;;;;;;11.82;10.63;;;;;;;6.75;68.10;101516.88;10387044;28;20059;-64
2024/01/30 01:47:14;;;;;;;12.10;10.82;;;;;;;6.63;67.96;101516.47;10391781;28;20132;-63
2024/01/30 01:52:16;;;;;;;12.68;11.38;;;;;;;6.55;68.17;101515.97;10386578;28;20173;-63
2024/01/30 01:57:18;;;;;;;12.60;11.40;;;;;;;6.51;68.13;101504.63;10390454;28;20057;-64
2024/01/30 02:02:22;;;;;;;12.40;11.20;;;;;;;6.51;68.34;101499.34;10383652;28;20053;-64
2024/01/30 02:07:24;;;;;;;12.82;10.63;;;;;;;6.54;68.74;101490.44;10389278;28;20064;-64
2024/01/30 02:12:26;;;;;;;12.32;11.13;;;;;;;6.56;68.09;101493.88;10372766;28;20052;-64
2024/01/30 02:17:27;;;;;;;12.82;10.90;;;;;;;6.62;68.29;101498.91;10392116;28;20487;-63
2024/01/30 02:22:29;;;;;;;13.52;11.57;;;;;;;6.63;68.57;101490.03;10394217;28;20058;-64
2024/01/30 02:27:31;;;;;;;12.18;10.98;;;;;;;6.57;68.20;101485.00;10386092;28;20076;-65
2024/01/30 02:32:33;;;;;;;11.60;10.15;;;;;;;6.60;68.10;101489.31;10388955;28;20041;-64
2024/01/30 02:37:38;;;;;;;12.07;10.98;;;;;;;6.57;67.69;101497.38;10388638;28;20096;-64
2024/01/30 02:42:39;;;;;;;11.82;10.60;;;;;;;6.21;67.68;101435.44;10377950;28;20063;-63
2024/01/30 02:47:40;;;;;;;13.45;11.13;;;;;;;6.50;67.91;101496.78;10376309;28;20543;-64
2024/01/30 02:52:43;;;;;;;13.07;11.02;;;;;;;6.46;67.78;101485.47;10375567;28;20136;-64
2024/01/30 02:57:45;;;;;;;12.45;11.23;;;;;;;6.51;67.87;101496.69;10383554;28;20053;-63
2024/01/30 03:02:48;;;;;;;12.00;10.73;;;;;;;6.50;67.63;101491.47;10357064;28;20041;-63
2024/01/30 03:07:49;;;;;;;13.73;11.75;;;;;;;6.41;67.57;101489.25;10387630;28;20059;-64
2024/01/30 03:12:51;;;;;;;13.55;10.80;;;;;;;6.45;68.05;101490.84;10382972;28;20066;-64
2024/01/30 03:17:53;;;;;;;12.60;11.30;;;;;;;6.43;68.24;101492.69;10379186;28;20059;-63
2024/01/30 03:22:56;;;;;;;12.00;10.73;;;;;;;6.42;68.25;101488.31;10382645;28;20651;-64
2024/01/30 03:27:57;;;;;;;12.82;11.35;;;;;;;6.39;68.35;101496.41;10382069;28;20052;-64
2024/01/30 03:32:59;;;;;;;13.85;11.40;;;;;;;6.30;68.26;101493.19;10381532;28;20071;-63
2024/01/30 03:38:00;;;;;;;12.38;11.15;;;;;;;6.21;68.38;101487.47;10364668;28;20526;-63
2024/01/30 03:43:05;;;;;;;12.20;11.00;;;;;;;6.19;68.15;101492.81;10395192;28;20056;-64
2024/01/30 03:48:07;;;;;;;13.27;11.98;;;;;;;6.13;68.62;101493.94;10380308;28;20419;-63
2024/01/30 03:53:08;;;;;;;12.07;10.80;;;;;;;6.18;68.75;101494.63;10384751;28;20041;-63
2024/01/30 03:58:10;;;;;;;11.50;10.40;;;;;;;6.12;68.72;101494.00;10383874;28;20064;-64
2024/01/30 04:03:11;;;;;;;11.88;10.77;;;;;;;6.05;68.82;101497.81;10385503;28;20123;-63
2024/01/30 04:08:13;;;;;;;12.32;10.93;;;;;;;6.08;68.86;101487.09;10384465;28;20052;-64
2024/01/30 04:13:15;;;;;;;11.50;10.32;;;;;;;5.96;68.38;101491.97;10351699;28;20054;-63
2024/01/30 04:18:18;;;;;;;11.95;10.68;;;;;;;5.79;68.70;101487.34;10382189;28;20060;-63
2024/01/30 04:23:20;;;;;;;12.32;10.50;;;;;;;5.78;69.30;101483.00;10369131;28;20053;-63
2024/01/30 04:28:23;;;;;;;11.45;10.20;;;;;;;5.80;70.34;101478.50;10377195;28;20708;-65
2024/01/30 04:33:25;;;;;;;10.70;9.48;;;;;;;5.88;69.50;101478.19;10393313;28;20053;-63
2024/01/30 04:38:26;;;;;;;11.20;10.07;;;;;;;5.94;69.82;101469.16;10395818;28;20041;-64
2024/01/30 04:43:29;;;;;;;11.15;10.10;;;;;;;5.93;69.87;101484.16;10378914;28;20055;-64
2024/01/30 04:48:30;;;;;;;12.00;10.75;;;;;;;5.82;69.88;101481.09;10385544;28;20049;-65
2024/01/30 04:53:32;;;;;;;13.00;10.55;;;;;;;5.84;69.43;101489.84;10375015;28;20692;-64
2024/01/30 04:58:33;;;;;;;11.02;9.93;;;;;;;5.81;69.76;101492.56;10388323;28;20147;-63
2024/01/30 05:03:35;;;;;;;12.55;11.25;;;;;;;5.76;69.38;101507.75;10382589;28;20133;-64
2024/01/30 05:08:37;;;;;;;13.07;11.32;;;;;;;5.74;69.27;101505.19;10378559;28;20049;-63
2024/01/30 05:13:38;;;;;;;12.45;11.27;;;;;;;5.70;68.94;101502.72;10388603;28;20535;-64
2024/01/30 05:18:39;;;;;;;13.45;11.30;;;;;;;5.71;68.73;101509.75;10389197;28;20052;-64
2024/01/30 05:23:41;;;;;;;11.05;9.90;;;;;;;5.62;68.61;101506.53;10376558;28;20099;-64
2024/01/30 05:28:46;;;;;;;11.27;10.18;;;;;;;5.55;69.24;101499.78;10394648;28;20521;-63
2024/01/30 05:33:47;;;;;;;14.57;11.07;;;;;;;5.40;68.61;101495.94;10392215;28;20048;-64
2024/01/30 05:38:50;;;;;;;11.80;10.60;;;;;;;5.50;69.13;101517.59;10382275;28;20493;-63
2024/01/30 05:43:52;;;;;;;12.07;10.60;;;;;;;5.45;69.22;101506.31;10398663;28;20044;-65
2024/01/30 05:48:53;;;;;;;11.88;10.75;;;;;;;5.43;69.62;101501.09;10386242;28;20063;-64
2024/01/30 05:53:55;;;;;;;12.93;10.30;;;;;;;5.50;69.40;101512.31;10390203;28;20510;-65
2024/01/30 05:58:56;;;;;;;11.48;10.07;;;;;;;5.51;69.29;101514.03;10385613;28;20069;-65
2024/01/30 06:03:58;;;;;;;12.45;11.13;;;;;;;5.34;68.96;101505.91;10387406;28;20061;-65
2024/01/30 06:08:59;;;;;;;12.10;10.85;;;;;;;5.32;69.93;101509.44;10379910;28;20807;-65
2024/01/30 06:14:01;;;;;;;11.70;10.50;;;;;;;5.34;70.25;101516.47;10385058;28;20124;-64
2024/01/30 06:19:03;;;;;;;11.57;10.35;;;;;;;5.37;69.77;101516.34;10383505;28;20049;-63
2024/01/30 06:24:05;;;;;;;10.23;9.20;;;;;;;5.43;70.13;101516.09;10367450;28;20049;-65
2024/01/30 06:29:08;;;;;;;11.25;10.05;;;;;;;5.35;70.04;101513.75;10378926;28;20169;-64
2024/01/30 06:34:11;;;;;;;11.07;9.82;;;;;;;5.41;71.00;101513.53;10376364;28;20049;-64
2024/01/30 06:39:15;;;;;;;10.90;9.77;;;;;;;5.43;70.33;101516.09;10391719;28;20041;-63
2024/01/30 06:44:17;;;;;;;12.27;10.57;;;;;;;5.37;70.61;101511.06;10369829;28;20083;-64
2024/01/30 06:49:18;;;;;;;10.88;9.75;;;;;;;5.39;70.86;101509.22;10376898;28;20056;-64
2024/01/30 06:54:20;;;;;;;11.35;10.25;;;;;;;5.13;70.87;101477.63;10376355;28;20049;-63
2024/01/30 06:59:21;;;;;;;11.57;10.05;;;;;;;5.42;71.02;101524.94;10380251;28;20060;-64
2024/01/30 07:04:22;;;;;;;13.90;11.60;;;;;;;5.43;71.28;101519.59;10384260;28;20589;-63
2024/01/30 07:09:24;;;;;;;12.45;11.18;;;;;;;5.34;70.68;101519.09;10385287;28;20065;-62
2024/01/30 07:14:25;;;;;;;14.63;11.07;;;;;;;5.12;71.32;101519.94;10359128;28;20094;-64
2024/01/30 07:19:27;;;;;;;17.85;11.40;;;;;;;5.08;72.13;101520.94;10382556;28;20940;-63
2024/01/30 07:24:28;;;;;;;12.68;10.93;;;;;;;5.10;72.83;101514.72;10381939;28;21129;-65
2024/01/30 07:29:30;;;;;;;13.63;11.68;;;;;;;5.03;72.39;101512.34;10390205;28;20704;-63
2024/01/30 07:34:34;;;;;;;14.30;11.70;;;;;;;5.09;72.25;101517.41;10379637;28;20076;-64
2024/01/30 07:39:50;;;;;;;14.65;11.90;;;;;;;5.19;72.65;101518.75;10397217;28;20048;-64
2024/01/30 07:44:52;;;;;;;15.23;13.32;;;;;;;5.21;72.42;101524.84;10376556;28;20144;-62
2024/01/30 07:49:55;;;;;;;12.60;11.35;;;;;;;5.17;72.34;101531.16;10385135;28;20108;-64
2024/01/30 07:54:56;;;;;;;13.93;11.90;;;;;;;5.04;72.87;101524.63;10377645;28;20079;-62
2024/01/30 07:59:58;;;;;;;16.50;12.38;;;;;;;5.17;73.21;101531.16;10343827;28;20049;-65
2024/01/30 08:04:59;;;;;;;14.95;13.05;;;;;;;5.20;73.20;101531.06;10372187;28;20060;-62
2024/01/30 08:10:01;;;;;;;15.85;12.73;;;;;;;5.21;73.15;101519.56;10385502;28;20156;-63
2024/01/30 08:15:03;;;;;;;15.05;13.40;;;;;;;5.27;73.24;101542.25;10382469;28;20076;-63
2024/01/30 08:20:05;;;;;;;15.07;13.55;;;;;;;5.31;73.22;101544.72;10383775;28;20092;-63
2024/01/30 08:25:09;;;;;;;16.33;12.98;;;;;;;5.30;73.94;101548.28;10382526;28;20679;-62
2024/01/30 08:30:11;;;;;;;14.75;12.80;;;;;;;5.52;73.72;101555.34;10385190;28;20466;-63
2024/01/30 08:35:15;;;;;;;18.00;14.88;;;;;;;5.59;74.41;101548.94;10383240;28;20055;-63
2024/01/30 08:40:16;;;;;;;17.63;15.60;;;;;;;5.76;75.59;101550.91;10368999;28;20049;-63
2024/01/30 08:45:19;;;;;;;20.85;14.52;;;;;;;5.93;76.44;101547.59;10385584;28;20543;-65
2024/01/30 08:50:20;;;;;;;17.63;15.70;;;;;;;6.01;77.08;101536.75;10382444;28;20687;-61
2024/01/30 08:55:22;;;;;;;20.15;15.57;;;;;;;6.07;77.99;101548.84;10374450;28;20134;-64
2024/01/30 09:00:27;;;;;;;15.98;14.43;;;;;;;6.14;77.91;101548.53;10356565;28;20065;-64
2024/01/30 09:05:29;;;;;;;18.50;14.75;;;;;;;6.15;77.94;101557.31;10370220;28;20132;-63
2024/01/30 09:10:31;;;;;;;17.35;15.55;;;;;;;6.14;78.39;101550.31;10381888;28;20052;-62
2024/01/30 09:15:32;;;;;;;18.38;16.02;;;;;;;6.19;78.98;101554.47;10382362;28;20076;-62
2024/01/30 09:20:34;;;;;;;16.73;15.18;;;;;;;6.18;78.84;101552.78;10393817;28;20091;-62
2024/01/30 09:25:35;;;;;;;16.00;14.43;;;;;;;6.24;78.52;101556.94;10388246;28;20045;-63
2024/01/30 09:30:37;;;;;;;16.27;14.65;;;;;;;6.20;78.88;101565.94;10386676;28;20609;-63
2024/01/30 09:35:38;;;;;;;16.80;14.20;;;;;;;6.27;79.13;101562.09;10389988;28;20084;-62
2024/01/30 09:40:41;;;;;;;15.60;14.10;;;;;;;6.29;79.49;101565.56;10388815;28;20215;-61
2024/01/30 09:45:45;;;;;;;17.63;15.43;;;;;;;6.35;78.77;101569.69;10362731;28;20050;-62
2024/01/30 09:50:46;;;;;;;18.65;15.18;;;;;;;6.35;79.07;101562.66;10388043;28;20060;-64
2024/01/30 09:55:50;;;;;;;16.13;14.45;;;;;;;6.55;78.09;101560.94;10391309;28;20459;-62
2024/01/30 10:00:55;;;;;;;20.75;18.75;;;;;;;6.59;78.38;101546.66;10377988;28;20056;-63
2024/01/30 10:06:01;;;;;;;20.88;18.80;;;;;;;6.80;77.63;101566.03;10390512;28;20740;-63
2024/01/30 10:11:03;;;;;;;38.03;30.38;;;;;;;6.82;76.80;101560.69;10398089;28;20096;-61
2024/01/30 10:16:06;;;;;;;19.02;15.88;;;;;;;6.76;76.78;101558.31;10402167;28;20680;-63
2024/01/30 10:21:08;;;;;;;15.93;14.02;;;;;;;6.83;77.26;101557.09;10371982;28;20045;-62
2024/01/30 10:26:10;;;;;;;15.73;13.73;;;;;;;6.96;76.72;101552.13;10383171;28;20136;-63
2024/01/30 10:31:16;;;;;;;16.70;14.13;;;;;;;6.79;77.02;101547.59;10373587;28;20053;-62
2024/01/30 10:36:18;;;;;;;20.23;16.48;;;;;;;6.95;77.06;101547.75;10394443;28;20208;-63
2024/01/30 10:41:26;;;;;;;17.65;15.90;;;;;;;7.13;76.19;101544.28;10375265;28;20060;-61
2024/01/30 10:46:31;;;;;;;26.35;23.90;;;;;;;7.02;75.97;101542.09;10377069;28;20154;-63
2024/01/30 10:51:35;;;;;;;21.77;19.20;;;;;;;6.90;76.10;101542.66;10387042;28;20049;-62
2024/01/30 10:56:38;;;;;;;31.02;25.60;;;;;;;6.94;76.34;101536.31;10379187;28;20052;-63
2024/01/30 11:01:40;;;;;;;16.23;14.52;;;;;;;7.03;75.98;101540.34;10353928;28;20053;-62
2024/01/30 11:06:42;;;;;;;22.35;19.85;;;;;;;7.51;74.83;101540.78;10389859;28;20126;-62
2024/01/30 11:12:01;;;;;;;16.15;14.45;;;;;;;7.92;72.58;101551.19;10366844;28;21033;-61
2024/01/30 11:17:03;;;;;;;15.25;13.68;;;;;;;8.07;72.11;101538.97;10369357;28;20054;-63
2024/01/30 11:22:08;;;;;;;17.25;14.77;;;;;;;8.44;70.29;101551.28;10366229;28;20146;-65
2024/01/30 11:27:14;;;;;;;20.20;17.08;;;;;;;8.71;69.97;101540.19;10385789;28;20127;-61
2024/01/30 11:32:23;;;;;;;15.13;13.52;;;;;;;9.12;66.85;101534.47;10387356;28;20808;-61
2024/01/30 11:37:26;;;;;;;14.13;12.73;;;;;;;9.15;67.12;101518.38;10380629;28;20625;-62
2024/01/30 11:42:29;;;;;;;15.77;14.38;;;;;;;9.74;65.78;101525.75;10380350;28;20135;-62
2024/01/30 11:47:31;;;;;;;15.52;13.85;;;;;;;10.26;63.49;101528.06;10383676;28;20462;-63
2024/01/30 11:52:33;;;;;;;16.25;14.65;;;;;;;10.73;61.58;101512.03;10379009;28;20076;-62
2024/01/30 11:57:36;;;;;;;14.57;13.18;;;;;;;10.74;61.52;101500.44;10379533;28;20206;-62
2024/01/30 12:02:38;;;;;;;14.32;12.93;;;;;;;10.22;62.12;101461.81;10389510;28;20719;-62
2024/01/30 12:07:39;;;;;;;14.77;13.32;;;;;;;10.06;63.85;101493.81;10377337;28;20079;-64
2024/01/30 12:12:45;;;;;;;15.50;13.68;;;;;;;9.78;65.41;101458.16;10386687;28;20054;-60
2024/01/30 12:17:47;;;;;;;15.82;12.63;;;;;;;9.91;65.21;101490.22;10384701;28;20119;-62
2024/01/30 12:22:49;;;;;;;14.43;12.93;;;;;;;9.90;65.15;101489.34;10384910;28;20057;-63
2024/01/30 12:27:51;;;;;;;14.15;12.25;;;;;;;9.91;65.45;101488.41;10375174;28;20126;-65
2024/01/30 12:32:54;;;;;;;13.55;12.10;;;;;;;9.85;65.53;101478.16;10391524;28;20110;-63
2024/01/30 12:37:55;;;;;;;14.07;12.35;;;;;;;9.98;65.47;101482.75;10376140;28;20061;-63
2024/01/30 12:42:58;;;;;;;13.10;11.88;;;;;;;9.91;65.73;101485.75;10360568;28;20127;-65
2024/01/30 12:48:00;;;;;;;13.55;12.15;;;;;;;10.07;64.75;101468.91;10371405;28;20845;-63
2024/01/30 12:53:02;;;;;;;16.83;13.25;;;;;;;10.02;64.92;101474.50;10385208;28;20123;-65
2024/01/30 12:58:05;;;;;;;13.97;12.50;;;;;;;10.23;64.68;101469.69;10407986;28;20100;-62
2024/01/30 13:03:08;;;;;;;13.52;12.02;;;;;;;10.49;64.16;101467.31;10396033;28;20128;-62
2024/01/30 13:08:09;;;;;;;15.43;14.02;;;;;;;10.50;63.31;101454.88;10382012;28;20049;-65
2024/01/30 13:13:11;;;;;;;16.15;13.15;;;;;;;10.67;62.89;101451.16;10400128;28;20746;-64
2024/01/30 13:18:21;;;;;;;17.75;13.75;;;;;;;11.83;59.30;101441.97;10393496;28;20049;-63
2024/01/30 13:23:23;;;;;;;17.70;14.13;;;;;;;12.35;57.17;101442.91;10390573;28;20059;-62
2024/01/30 13:28:25;;;;;;;16.17;13.60;;;;;;;11.90;57.83;101432.56;10389482;28;20056;-64
2024/01/30 13:33:27;;;;;;;14.43;12.77;;;;;;;11.39;60.40;101433.25;10393599;28;20206;-64
2024/01/30 13:38:29;;;;;;;13.00;11.70;;;;;;;11.03;61.34;101447.97;10391580;28;20626;-63
2024/01/30 13:43:31;;;;;;;16.77;12.43;;;;;;;10.59;62.93;101457.81;10391980;28;20143;-63
2024/01/30 13:48:32;;;;;;;14.32;12.82;;;;;;;10.46;64.03;101451.50;10390922;28;20174;-62
2024/01/30 13:53:34;;;;;;;14.02;12.70;;;;;;;10.40;64.31;101438.59;10389468;28;20727;-63
2024/01/30 13:58:36;;;;;;;14.15;12.65;;;;;;;10.27;64.94;101449.94;10385814;28;20056;-64
2024/01/30 14:03:40;;;;;;;14.32;12.85;;;;;;;10.24;65.57;101444.81;10397178;28;20190;-63
2024/01/30 14:08:42;;;;;;;14.68;13.18;;;;;;;10.16;65.80;101449.72;10391928;28;20049;-61
2024/01/30 14:13:50;;;;;;;15.57;13.98;;;;;;;10.08;66.48;101450.19;10390191;28;20053;-63
2024/01/30 14:18:52;;;;;;;41.75;35.65;;;;;;;10.01;66.48;101461.28;10388505;28;20049;-64
2024/01/30 14:23:53;;;;;;;15.95;14.50;;;;;;;9.95;67.23;101445.69;10374019;28;20424;-66
2024/01/30 14:28:55;;;;;;;13.75;12.35;;;;;;;9.94;67.29;101449.28;10362923;28;20065;-63
2024/01/30 14:33:56;;;;;;;14.73;13.23;;;;;;;9.96;67.78;101461.56;10380672;28;20061;-64
2024/01/30 14:38:59;;;;;;;19.42;17.48;;;;;;;9.97;67.93;101462.41;10390336;28;20048;-62
2024/01/30 14:44:00;;;;;;;15.52;13.35;;;;;;;9.97;68.40;101467.72;10368341;28;20060;-62
2024/01/30 14:49:07;;;;;;;13.57;12.38;;;;;;;10.01;68.50;101469.25;10391994;28;20124;-62
2024/01/30 14:54:09;;;;;;;15.27;12.32;;;;;;;9.82;68.61;101457.03;10376760;28;20133;-61
2024/01/30 14:59:11;;;;;;;17.13;15.32;;;;;;;9.96;68.71;101482.84;10367243;28;20117;-62
2024/01/30 15:04:12;;;;;;;14.90;13.30;;;;;;;9.82;69.02;101446.41;10385642;28;20124;-61
2024/01/30 15:09:14;;;;;;;16.65;14.95;;;;;;;9.83;69.40;101456.13;10370801;28;20057;-60
2024/01/30 15:14:16;;;;;;;14.82;13.30;;;;;;;9.89;69.70;101482.34;10390636;28;20449;-62
2024/01/30 15:19:17;;;;;;;13.73;12.27;;;;;;;9.87;69.70;101483.38;10373803;28;20049;-61
2024/01/30 15:24:20;;;;;;;15.55;13.20;;;;;;;9.81;70.31;101492.56;10383800;28;20651;-62
2024/01/30 15:29:23;;;;;;;16.33;12.80;;;;;;;9.75;70.65;101490.25;10367986;28;20441;-62
2024/01/30 15:34:24;;;;;;;14.60;13.07;;;;;;;9.78;70.88;101495.38;10400025;28;20159;-61
2024/01/30 15:39:26;;;;;;;36.33;27.77;;;;;;;9.74;70.66;101496.50;10388726;28;20245;-63
2024/01/30 15:44:31;;;;;;;15.07;13.63;;;;;;;9.80;70.95;101495.31;10372186;28;20147;-62
2024/01/30 15:49:36;;;;;;;15.00;13.48;;;;;;;9.72;71.10;101479.78;10388338;28;20071;-63
2024/01/30 15:54:37;;;;;;;15.02;13.45;;;;;;;9.78;70.96;101499.88;10361019;28;20147;-62
2024/01/30 15:59:41;;;;;;;15.88;14.13;;;;;;;9.78;71.15;101513.16;10376540;28;20060;-62
2024/01/30 16:04:43;;;;;;;17.23;14.70;;;;;;;9.80;71.37;101517.41;10382522;28;20056;-60
2024/01/30 16:09:47;;;;;;;15.45;13.90;;;;;;;9.89;71.23;101513.38;10354754;28;20049;-62
2024/01/30 16:14:54;;;;;;;16.00;13.90;;;;;;;9.89;71.21;101521.38;10380954;28;20178;-62
2024/01/30 16:19:55;;;;;;;17.23;14.75;;;;;;;9.86;71.22;101518.88;10369384;28;20521;-62
2024/01/30 16:24:57;;;;;;;16.20;14.27;;;;;;;9.83;71.47;101514.63;10390061;28;20057;-61
2024/01/30 16:30:00;;;;;;;15.68;14.15;;;;;;;9.86;71.48;101508.25;10370682;28;20060;-60
2024/01/30 16:35:02;;;;;;;16.20;14.60;;;;;;;9.75;71.95;101511.53;10385558;28;20104;-61
2024/01/30 16:40:06;;;;;;;16.17;14.23;;;;;;;9.51;71.99;101488.03;10395435;28;20059;-61
2024/01/30 16:45:08;;;;;;;17.77;15.93;;;;;;;9.79;72.12;101520.16;10393135;28;20207;-62
2024/01/30 16:50:10;;;;;;;16.67;14.98;;;;;;;9.63;72.67;101506.91;10384170;28;20045;-60
2024/01/30 16:55:13;;;;;;;16.92;15.20;;;;;;;9.73;72.80;101524.06;10356594;28;20060;-62
2024/01/30 17:00:15;;;;;;;17.02;15.13;;;;;;;9.75;72.62;101530.13;10387889;28;20063;-61
2024/01/30 17:05:16;;;;;;;19.08;15.02;;;;;;;9.75;72.83;101527.47;10382316;28;20161;-60
2024/01/30 17:10:27;;;;;;;17.88;15.65;;;;;;;9.67;72.99;101535.03;10391207;28;20072;-60
2024/01/30 17:15:29;;;;;;;18.48;15.95;;;;;;;9.77;73.17;101544.19;10383456;28;20794;-61
2024/01/30 17:20:30;;;;;;;18.08;14.75;;;;;;;9.75;73.05;101548.75;10393648;28;20049;-62
2024/01/30 17:25:32;;;;;;;17.13;15.32;;;;;;;9.63;73.32;101544.97;10389393;28;20373;-64
2024/01/30 17:30:35;;;;;;;19.80;16.30;;;;;;;9.73;73.67;101570.09;10378907;28;20138;-64
2024/01/30 17:35:36;;;;;;;16.38;14.10;;;;;;;9.77;73.75;101577.91;10401281;28;20132;-64
2024/01/30 17:40:37;;;;;;;15.93;12.73;;;;;;;9.76;73.53;101587.69;10395860;28;20049;-62
2024/01/30 17:45:39;;;;;;;16.48;12.90;;;;;;;9.78;73.82;101584.97;10375768;28;20044;-61
2024/01/30 17:50:44;;;;;;;14.52;12.05;;;;;;;9.60;74.17;101562.91;10398144;28;20052;-60
2024/01/30 17:55:47;;;;;;;15.00;13.55;;;;;;;9.43;74.62;101538.13;10393931;28;20049;-61
2024/01/30 18:00:48;;;;;;;35.85;29.52;;;;;;;9.60;75.37;101586.84;10375211;28;20049;-63
2024/01/30 18:05:50;;;;;;;18.83;15.32;;;;;;;9.60;75.49;101589.50;10371491;28;20045;-62
2024/01/30 18:10:52;;;;;;;17.30;14.63;;;;;;;9.60;75.80;101592.16;10368145;28;20240;-61
2024/01/30 18:15:58;;;;;;;15.00;13.43;;;;;;;9.58;76.21;101604.66;10394278;28;20134;-63
2024/01/30 18:21:00;;;;;;;17.03;15.53;;;;;;;9.53;77.24;101603.13;10395290;28;20657;-62
2024/01/30 18:26:02;;;;;;;13.23;11.88;;;;;;;9.57;77.24;101606.47;10392075;28;20375;-61
2024/01/30 18:31:03;;;;;;;13.40;12.10;;;;;;;9.65;77.33;101612.22;10390949;28;20696;-62
2024/01/30 18:36:06;;;;;;;14.52;13.13;;;;;;;9.66;77.51;101626.38;10391740;28;20219;-63
2024/01/30 18:41:07;;;;;;;14.10;12.63;;;;;;;9.74;77.57;101624.13;10391935;28;20056;-61
2024/01/30 18:46:12;;;;;;;14.27;12.25;;;;;;;9.80;78.10;101630.94;10395804;28;20140;-61
2024/01/30 18:51:16;;;;;;;14.43;12.38;;;;;;;9.82;78.62;101627.25;10372516;28;20165;-64
2024/01/30 18:56:19;;;;;;;14.32;12.82;;;;;;;9.81;79.09;101636.16;10358970;28;20618;-63
2024/01/30 19:01:20;;;;;;;16.45;12.48;;;;;;;9.81;79.15;101630.84;10388721;28;20054;-60
2024/01/30 19:06:22;;;;;;;16.35;14.30;;;;;;;9.84;79.77;101633.31;10389120;28;20686;-62
2024/01/30 19:11:23;;;;;;;16.40;14.68;;;;;;;9.83;80.38;101642.28;10369981;28;20187;-61
2024/01/30 19:16:25;;;;;;;23.13;20.73;;;;;;;9.79;81.51;101646.03;10384537;28;20172;-62
2024/01/30 19:21:27;;;;;;;16.25;13.52;;;;;;;9.80;81.25;101641.56;10392709;28;20045;-60
2024/01/30 19:26:29;;;;;;;15.13;13.57;;;;;;;9.75;82.15;101641.81;10388838;28;20115;-61
2024/01/30 19:31:30;;;;;;;14.57;12.82;;;;;;;9.79;82.36;101651.34;10395837;28;20049;-61
2024/01/30 19:36:32;;;;;;;16.63;13.55;;;;;;;9.80;82.61;101654.84;10369742;28;20056;-62
2024/01/30 19:41:35;;;;;;;13.17;11.83;;;;;;;9.85;82.52;101666.97;10386415;28;20045;-61
2024/01/30 19:46:37;;;;;;;19.23;16.67;;;;;;;9.78;82.64;101654.09;10384489;28;20060;-63
2024/01/30 19:51:38;;;;;;;79.90;56.70;;;;;;;9.80;83.33;101668.16;10391629;28;20065;-62
2024/01/30 19:56:40;;;;;;;20.00;16.15;;;;;;;9.77;83.40;101669.16;10383696;28;20138;-63
2024/01/30 20:01:42;;;;;;;19.63;15.93;;;;;;;9.72;83.55;101644.66;10392490;28;20059;-62
2024/01/30 20:06:45;;;;;;;46.58;32.97;;;;;;;9.74;83.76;101669.34;10389419;28;20099;-61
2024/01/30 20:11:47;;;;;;;57.05;44.30;;;;;;;9.65;84.12;101652.13;10373494;28;20483;-61
2024/01/30 20:16:48;;;;;;;46.47;35.28;;;;;;;9.76;83.67;101655.97;10388471;28;20053;-61
2024/01/30 20:21:49;;;;;;;22.67;16.58;;;;;;;9.88;83.57;101677.44;10366216;28;20522;-61
2024/01/30 20:26:51;;;;;;;27.95;19.58;;;;;;;9.92;83.41;101686.09;10360297;28;20619;-62
2024/01/30 20:31:53;;;;;;;53.53;37.67;;;;;;;9.87;84.06;101686.34;10402266;28;20482;-62
2024/01/30 20:36:54;;;;;;;15.68;13.07;;;;;;;9.84;84.77;101691.00;10386342;28;20087;-61
2024/01/30 20:41:56;;;;;;;15.43;13.23;;;;;;;9.83;84.70;101676.84;10375347;28;20054;-61
2024/01/30 20:46:58;;;;;;;13.18;11.88;;;;;;;9.87;85.41;101675.72;10383805;28;20120;-62
2024/01/30 20:52:00;;;;;;;13.02;11.68;;;;;;;9.85;86.10;101661.66;10385113;28;20200;-65
2024/01/30 20:57:03;;;;;;;15.70;12.00;;;;;;;9.96;86.05;101673.50;10354688;28;20067;-62
2024/01/30 21:02:05;;;;;;;14.10;12.63;;;;;;;9.98;86.13;101684.91;10389709;28;20061;-62
2024/01/30 21:07:08;;;;;;;13.23;11.38;;;;;;;9.96;86.10;101684.16;10378075;28;20056;-62
2024/01/30 21:12:13;;;;;;;13.35;11.60;;;;;;;9.98;86.35;101684.91;10389549;28;20052;-61
2024/01/30 21:17:14;;;;;;;13.40;12.00;;;;;;;9.99;86.13;101683.97;10392240;28;20068;-61
2024/01/30 21:22:16;;;;;;;13.38;11.68;;;;;;;9.97;86.46;101688.50;10378746;28;20131;-61
2024/01/30 21:27:20;;;;;;;23.05;20.73;;;;;;;10.00;86.25;101672.41;10369668;28;20064;-61
2024/01/30 21:32:22;;;;;;;14.30;12.90;;;;;;;10.02;86.19;101683.81;10385620;28;20061;-61
2024/01/30 21:37:23;;;;;;;21.60;16.63;;;;;;;10.07;85.95;101689.72;10393363;28;20064;-62
2024/01/30 21:42:25;;;;;;;15.18;12.07;;;;;;;10.09;85.79;101702.00;10388344;28;20053;-61
2024/01/30 21:47:27;;;;;;;26.70;22.25;;;;;;;10.17;85.41;101704.22;10394129;28;20767;-61
2024/01/30 21:52:28;;;;;;;25.63;18.95;;;;;;;10.13;85.06;101688.53;10389829;28;20056;-61
2024/01/30 21:57:30;;;;;;;14.60;13.02;;;;;;;10.24;84.84;101710.09;10367998;28;20445;-61
2024/01/30 22:02:32;;;;;;;13.40;12.07;;;;;;;10.23;84.32;101709.19;10371296;28;20056;-61
2024/01/30 22:07:34;;;;;;;14.98;13.40;;;;;;;9.88;84.62;101709.34;10375909;28;20053;-61
2024/01/30 22:12:36;;;;;;;14.80;13.30;;;;;;;9.95;85.07;101711.69;10385845;28;20053;-61
2024/01/30 22:17:40;;;;;;;14.63;13.13;;;;;;;10.07;84.53;101714.53;10365167;28;20053;-60
2024/01/30 22:22:41;;;;;;;15.40;13.80;;;;;;;10.14;84.57;101725.69;10363830;28;20089;-61
2024/01/30 22:27:42;;;;;;;14.88;13.43;;;;;;;10.14;85.42;101731.00;10383370;28;20059;-62
2024/01/30 22:32:44;;;;;;;16.50;14.15;;;;;;;10.15;86.97;101726.53;10369114;28;20061;-60
2024/01/30 22:37:46;;;;;;;15.35;13.73;;;;;;;10.17;87.77;101730.00;10374007;28;20056;-65
2024/01/30 22:42:49;;;;;;;13.52;12.13;;;;;;;10.14;87.68;101731.00;10385041;28;20055;-61
2024/01/30 22:47:50;;;;;;;14.95;13.45;;;;;;;10.25;87.64;101739.28;10374685;28;20060;-60
2024/01/30 22:52:52;;;;;;;14.95;13.20;;;;;;;10.23;87.35;101743.81;10383314;28;20136;-60